Time;durP1;ratioP1;P1;durP2;ratioP2;P2;SDS_P1;SDS_P2;PMS_P1;PMS_P2;Temp;Humidity;BMP_temperature;BMP_pressure;BME280_temperature;BME280_humidity;BME280_pressure;Samples;Min_cycle;Max_cycle;Signal;HPM_P1;HPM_P2
2023/03/03 00:01:38;;;;;;;12.00;9.00;;;;;;;10.21;54.22;99719.17;104759;1257;61774;-66
2023/03/03 00:04:07;;;;;;;12.80;8.60;;;;;;;10.32;53.39;99716.29;104620;1254;72778;-67
2023/03/03 00:06:35;;;;;;;11.00;8.00;;;;;;;10.35;53.18;99712.15;104692;1251;69578;-66
2023/03/03 00:09:03;;;;;;;11.80;8.70;;;;;;;10.30;53.38;99706.05;104638;1256;71008;-66
2023/03/03 00:11:37;;;;;;;13.70;8.90;;;;;;;10.34;53.84;99705.35;104497;1262;61708;-65
2023/03/03 00:14:17;;;;;;;10.40;7.80;;;;;;;10.43;53.21;99698.52;104983;1254;61669;-68
2023/03/03 00:16:48;;;;;;;9.90;7.80;;;;;;;10.49;52.97;99697.73;104602;1257;73512;-66
2023/03/03 00:19:18;;;;;;;11.10;8.60;;;;;;;10.51;52.98;99697.64;104625;1251;68813;-66
2023/03/03 00:21:47;;;;;;;10.00;7.70;;;;;;;10.47;52.66;99693.95;104685;1256;73016;-66
2023/03/03 00:24:31;;;;;;;11.50;8.40;;;;;;;10.45;53.10;99689.83;104710;1254;61713;-67
2023/03/03 00:27:01;;;;;;;9.80;7.70;;;;;;;10.48;52.86;99687.93;104712;1255;61714;-67
2023/03/03 00:29:38;;;;;;;9.70;7.80;;;;;;;10.58;52.76;99681.08;104552;1267;73475;-67
2023/03/03 00:32:22;;;;;;;13.00;8.60;;;;;;;10.63;52.29;99676.63;104811;1251;69088;-66
2023/03/03 00:34:52;;;;;;;11.00;8.60;;;;;;;10.70;52.21;99673.56;104496;1255;70808;-68
2023/03/03 00:37:28;;;;;;;10.00;7.60;;;;;;;10.70;51.50;99673.56;104532;1251;61701;-65
2023/03/03 00:40:21;;;;;;;12.80;8.70;;;;;;;10.73;51.70;99667.63;104660;1253;61695;-68
2023/03/03 00:42:54;;;;;;;11.40;8.50;;;;;;;10.73;51.86;99666.94;104608;1266;72967;-67
2023/03/03 00:45:29;;;;;;;15.60;9.50;;;;;;;10.60;51.90;99663.29;104651;1251;69509;-67
2023/03/03 00:47:58;;;;;;;11.80;8.90;;;;;;;10.60;52.11;99655.56;104640;1251;72321;-67
2023/03/03 00:50:29;;;;;;;14.60;9.50;;;;;;;10.62;51.74;99660.06;104558;1255;61612;-67
2023/03/03 00:53:01;;;;;;;12.80;9.20;;;;;;;10.65;51.49;99654.80;104651;1251;61695;-67
2023/03/03 00:55:30;;;;;;;13.50;8.90;;;;;;;10.61;52.10;99655.33;104635;1255;72798;-67
2023/03/03 00:58:03;;;;;;;15.60;10.00;;;;;;;10.57;52.48;99651.67;104611;1266;68012;-67
2023/03/03 01:00:34;;;;;;;15.40;9.70;;;;;;;10.54;52.16;99648.28;104594;1262;72573;-66
2023/03/03 01:03:06;;;;;;;14.30;10.30;;;;;;;10.47;52.29;99647.34;104641;1251;61686;-65
2023/03/03 01:05:35;;;;;;;13.00;9.80;;;;;;;10.47;52.86;99644.20;104634;1262;61583;-65
2023/03/03 01:08:04;;;;;;;14.40;9.60;;;;;;;10.45;53.43;99637.46;104538;1256;74404;-66
2023/03/03 01:10:50;;;;;;;15.60;9.80;;;;;;;10.50;53.03;99637.39;104753;1254;68495;-66
2023/03/03 01:13:22;;;;;;;13.60;9.60;;;;;;;10.49;53.12;99630.98;104638;1255;71756;-66
2023/03/03 01:15:50;;;;;;;14.80;9.30;;;;;;;10.46;53.27;99630.40;104564;1269;62186;-65
2023/03/03 01:18:19;;;;;;;12.20;9.00;;;;;;;10.51;52.77;99630.69;104628;1251;61590;-66
2023/03/03 01:20:48;;;;;;;12.50;8.10;;;;;;;10.56;52.54;99628.39;104558;1252;73478;-66
2023/03/03 01:23:19;;;;;;;12.30;8.10;;;;;;;10.50;52.87;99625.65;104706;1253;68248;-67
2023/03/03 01:25:48;;;;;;;13.00;8.30;;;;;;;10.48;52.94;99625.94;104694;1251;71834;-67
2023/03/03 01:28:17;;;;;;;9.80;7.40;;;;;;;10.48;53.12;99623.11;108692;1251;61037;-67
2023/03/03 01:30:46;;;;;;;10.30;7.30;;;;;;;10.46;53.42;99618.83;105528;1253;61588;-67
2023/03/03 01:33:16;;;;;;;14.70;7.80;;;;;;;10.42;53.49;99617.23;104872;1262;72646;-66
2023/03/03 01:35:49;;;;;;;11.00;7.30;;;;;;;10.43;53.45;99614.39;105161;1256;69453;-66
2023/03/03 01:38:19;;;;;;;12.60;7.60;;;;;;;10.42;53.59;99614.26;104905;1250;71989;-66
2023/03/03 01:40:58;;;;;;;9.40;7.90;;;;;;;10.39;53.74;99611.43;104830;1250;61586;-68
2023/03/03 01:43:29;;;;;;;12.30;7.60;;;;;;;10.33;54.50;99608.86;104850;1266;61561;-67
2023/03/03 01:45:58;;;;;;;11.00;7.30;;;;;;;10.31;54.59;99605.27;104734;1254;72538;-66
2023/03/03 01:48:32;;;;;;;11.90;7.70;;;;;;;10.31;55.02;99601.73;104714;1255;68830;-67
2023/03/03 01:51:30;;;;;;;9.50;7.10;;;;;;;10.36;54.88;99600.17;104865;1251;71701;-68
2023/03/03 01:54:00;;;;;;;9.80;6.70;;;;;;;10.40;54.92;99600.14;104857;1259;61688;-67
2023/03/03 01:56:29;;;;;;;11.00;7.50;;;;;;;10.42;54.43;99598.34;104960;1256;61691;-66
2023/03/03 01:59:08;;;;;;;9.50;7.00;;;;;;;10.41;54.60;99597.69;104726;1256;72395;-66
2023/03/03 02:01:37;;;;;;;8.60;6.50;;;;;;;10.44;54.97;99591.07;104827;1256;67775;-66
2023/03/03 02:04:06;;;;;;;8.80;6.00;;;;;;;10.38;54.92;99590.63;104753;1256;73034;-66
2023/03/03 02:06:40;;;;;;;10.30;6.50;;;;;;;10.26;55.73;99592.15;104814;1252;61598;-66
2023/03/03 02:09:27;;;;;;;7.90;5.90;;;;;;;10.22;56.24;99591.44;104733;1263;61586;-66
2023/03/03 02:11:58;;;;;;;7.60;5.90;;;;;;;10.24;56.42;99584.16;104748;1254;73466;-67
2023/03/03 02:14:27;;;;;;;7.50;6.10;;;;;;;10.19;56.71;99586.48;104911;1250;70552;-66
2023/03/03 02:16:56;;;;;;;9.80;6.40;;;;;;;10.28;55.81;99582.41;104643;1256;71822;-66
2023/03/03 02:19:30;;;;;;;7.20;5.80;;;;;;;10.18;56.35;99584.95;104786;1250;61708;-66
2023/03/03 02:22:00;;;;;;;7.60;6.10;;;;;;;10.26;56.05;99581.27;104862;1266;61701;-66
2023/03/03 02:24:36;;;;;;;6.90;5.90;;;;;;;10.33;55.40;99583.09;104512;1266;73451;-67
2023/03/03 02:27:06;;;;;;;6.80;5.60;;;;;;;10.40;55.25;99579.51;108872;1250;68907;-65
2023/03/03 02:29:36;;;;;;;8.50;6.00;;;;;;;10.43;55.11;99580.77;107676;1251;73222;-64
2023/03/03 02:32:05;;;;;;;6.40;5.60;;;;;;;10.44;54.85;99578.96;104819;1257;61669;-66
2023/03/03 02:34:46;;;;;;;7.00;5.80;;;;;;;10.45;54.94;99580.30;104749;1255;61589;-66
2023/03/03 02:37:15;;;;;;;7.70;5.80;;;;;;;10.48;54.61;99573.35;104904;1253;72617;-64
2023/03/03 02:39:44;;;;;;;8.40;6.60;;;;;;;10.46;54.76;99567.50;104970;1254;69216;-64
2023/03/03 02:42:19;;;;;;;9.70;6.40;;;;;;;10.53;54.60;99567.88;104637;1255;71882;-67
2023/03/03 02:44:54;;;;;;;8.40;6.90;;;;;;;10.49;54.97;99563.86;104521;1269;61693;-67
2023/03/03 02:47:23;;;;;;;8.80;6.70;;;;;;;10.31;55.20;99563.54;104740;1253;61796;-68
2023/03/03 02:49:52;;;;;;;8.00;6.60;;;;;;;10.28;55.56;99565.94;104636;1256;74253;-67
2023/03/03 02:52:20;;;;;;;8.70;6.60;;;;;;;10.35;55.37;99561.98;104765;1255;68221;-65
2023/03/03 02:54:49;;;;;;;8.90;6.40;;;;;;;10.39;55.02;99564.27;104639;1257;73252;-68
2023/03/03 02:57:17;;;;;;;9.20;6.70;;;;;;;10.50;54.84;99562.06;104544;1270;61335;-67
2023/03/03 02:59:48;;;;;;;7.30;6.20;;;;;;;10.60;54.19;99559.84;104626;1253;61711;-67
2023/03/03 03:02:18;;;;;;;7.60;5.90;;;;;;;10.66;53.91;99556.96;104592;1255;74301;-65
2023/03/03 03:04:47;;;;;;;7.00;6.10;;;;;;;10.71;53.52;99554.84;104682;1256;68537;-68
2023/03/03 03:07:20;;;;;;;8.80;6.70;;;;;;;10.71;53.74;99554.64;104549;1251;71043;-64
2023/03/03 03:09:49;;;;;;;10.50;7.00;;;;;;;10.62;53.82;99550.48;104584;1255;62029;-65
2023/03/03 03:12:20;;;;;;;11.00;8.60;;;;;;;10.50;55.32;99546.42;104679;1256;61600;-66
2023/03/03 03:14:50;;;;;;;10.60;7.90;;;;;;;10.38;56.95;99547.48;104768;1256;73444;-68
2023/03/03 03:17:19;;;;;;;11.70;8.30;;;;;;;10.44;56.48;99541.80;104648;1256;68140;-65
2023/03/03 03:19:49;;;;;;;11.10;7.90;;;;;;;10.31;57.57;99539.20;104713;1255;72020;-64
2023/03/03 03:22:18;;;;;;;11.60;8.20;;;;;;;10.37;57.49;99536.16;104641;1252;61586;-65
2023/03/03 03:24:47;;;;;;;9.40;7.80;;;;;;;10.38;57.86;99536.27;104543;1274;61794;-64
2023/03/03 03:27:15;;;;;;;12.20;7.70;;;;;;;10.40;57.48;99536.22;106645;1251;73466;-66
2023/03/03 03:29:45;;;;;;;11.10;8.10;;;;;;;10.40;57.37;99534.47;108114;1254;68991;-66
2023/03/03 03:32:14;;;;;;;12.30;8.00;;;;;;;10.42;56.59;99536.30;104914;1256;72433;-66
2023/03/03 03:34:43;;;;;;;9.90;8.20;;;;;;;10.44;56.78;99535.33;105044;1254;61690;-65
2023/03/03 03:37:14;;;;;;;10.50;7.80;;;;;;;10.38;57.10;99533.50;104681;1271;61666;-64
2023/03/03 03:39:57;;;;;;;9.70;7.50;;;;;;;10.45;57.02;99528.27;104687;1255;72618;-64
2023/03/03 03:42:26;;;;;;;11.20;7.80;;;;;;;10.52;56.56;99527.80;104771;1251;68128;-64
2023/03/03 03:44:56;;;;;;;8.60;7.40;;;;;;;10.59;55.87;99521.54;104637;1253;70599;-65
2023/03/03 03:47:25;;;;;;;8.50;7.00;;;;;;;10.59;55.50;99520.47;104779;1251;61706;-64
2023/03/03 03:49:54;;;;;;;9.60;6.80;;;;;;;10.62;55.47;99519.44;104629;1256;61765;-66
2023/03/03 03:52:23;;;;;;;10.30;7.60;;;;;;;10.59;55.20;99519.27;104914;1256;73194;-64
2023/03/03 03:54:51;;;;;;;12.00;8.40;;;;;;;10.61;55.41;99515.80;104641;1257;68983;-67
2023/03/03 03:57:20;;;;;;;10.30;7.40;;;;;;;10.64;55.31;99513.95;104628;1257;72201;-66
2023/03/03 04:00:09;;;;;;;9.50;7.60;;;;;;;10.47;57.20;99513.26;104705;1259;61051;-65
2023/03/03 04:02:42;;;;;;;13.00;8.20;;;;;;;10.54;56.98;99511.07;104566;1254;61698;-65
2023/03/03 04:05:13;;;;;;;11.80;8.50;;;;;;;10.43;57.61;99508.38;104594;1272;72840;-65
2023/03/03 04:07:42;;;;;;;12.30;8.30;;;;;;;10.17;60.20;99508.78;104522;1254;69027;-65
2023/03/03 04:10:11;;;;;;;13.70;8.80;;;;;;;10.13;61.37;99505.99;104564;1254;71527;-65
2023/03/03 04:12:40;;;;;;;11.30;7.90;;;;;;;10.18;60.93;99507.02;104639;1256;61678;-66
2023/03/03 04:15:15;;;;;;;8.70;7.70;;;;;;;10.24;60.30;99503.03;104581;1252;61689;-65
2023/03/03 04:17:45;;;;;;;11.90;8.20;;;;;;;10.32;59.53;99503.95;104547;1256;72553;-65
2023/03/03 04:20:14;;;;;;;12.10;8.40;;;;;;;10.38;58.92;99498.95;104675;1256;68267;-66
2023/03/03 04:22:44;;;;;;;10.00;7.80;;;;;;;10.33;59.29;99499.89;104666;1256;72179;-67
2023/03/03 04:25:14;;;;;;;12.40;8.10;;;;;;;10.22;60.50;99497.17;104612;1252;61711;-68
2023/03/03 04:27:43;;;;;;;13.40;8.50;;;;;;;10.01;61.80;99491.78;105780;1250;61920;-66
2023/03/03 04:30:12;;;;;;;9.90;7.50;;;;;;;10.17;61.16;99490.92;108560;1250;72629;-67
2023/03/03 04:32:41;;;;;;;10.00;7.30;;;;;;;10.23;60.96;99484.91;105253;1250;69428;-64
2023/03/03 04:35:12;;;;;;;9.20;7.00;;;;;;;10.22;61.16;99483.52;105077;1253;71608;-67
2023/03/03 04:37:42;;;;;;;8.80;6.60;;;;;;;10.24;60.37;99477.50;105306;1257;61433;-66
2023/03/03 04:40:12;;;;;;;10.20;7.40;;;;;;;10.13;61.31;99477.42;105001;1255;62041;-65
2023/03/03 04:42:41;;;;;;;8.40;6.90;;;;;;;10.21;60.97;99473.94;104659;1251;74630;-65
2023/03/03 04:45:13;;;;;;;8.30;6.40;;;;;;;10.27;60.65;99471.73;104955;1255;69227;-64
2023/03/03 04:47:43;;;;;;;8.80;6.70;;;;;;;10.35;59.86;99466.86;105120;1257;71990;-65
2023/03/03 04:50:11;;;;;;;9.70;7.00;;;;;;;10.31;59.96;99472.98;105072;1260;61707;-64
2023/03/03 04:52:41;;;;;;;10.80;7.40;;;;;;;10.34;59.90;99471.61;104914;1256;62213;-65
2023/03/03 04:55:10;;;;;;;8.90;7.50;;;;;;;10.18;61.15;99475.79;104904;1266;73492;-65
2023/03/03 04:57:38;;;;;;;9.30;6.70;;;;;;;10.13;61.73;99477.60;104778;1250;68177;-65
2023/03/03 05:00:11;;;;;;;8.90;7.30;;;;;;;10.18;61.38;99472.15;104937;1251;71270;-70
2023/03/03 05:02:46;;;;;;;9.10;7.20;;;;;;;10.21;61.23;99473.56;104928;1252;61707;-65
2023/03/03 05:05:19;;;;;;;10.30;7.00;;;;;;;10.22;61.45;99474.43;104866;1251;61605;-65
2023/03/03 05:07:47;;;;;;;8.70;6.80;;;;;;;10.17;61.41;99473.91;104838;1255;73201;-65
2023/03/03 05:10:16;;;;;;;9.50;7.10;;;;;;;10.18;61.77;99471.61;104868;1267;68171;-66
2023/03/03 05:12:44;;;;;;;7.50;6.40;;;;;;;10.07;62.86;99472.43;104873;1255;72759;-66
2023/03/03 05:15:13;;;;;;;9.20;7.00;;;;;;;10.14;62.26;99474.61;104897;1257;61631;-65
2023/03/03 05:17:42;;;;;;;8.50;6.80;;;;;;;10.13;62.81;99474.28;104970;1262;61720;-64
2023/03/03 05:20:14;;;;;;;9.40;7.70;;;;;;;10.24;62.10;99477.48;104904;1255;72352;-67
2023/03/03 05:22:43;;;;;;;9.90;7.70;;;;;;;10.20;62.61;99477.48;104783;1256;70004;-64
2023/03/03 05:25:12;;;;;;;10.30;8.20;;;;;;;10.21;62.63;99479.55;104863;1266;72660;-64
2023/03/03 05:27:42;;;;;;;10.00;8.00;;;;;;;10.21;62.48;99475.50;104983;1253;61601;-65
2023/03/03 05:30:12;;;;;;;11.60;8.90;;;;;;;10.31;61.21;99476.85;104897;1255;61717;-65
2023/03/03 05:32:45;;;;;;;9.80;8.10;;;;;;;10.31;61.85;99469.63;105031;1256;72836;-66
2023/03/03 05:35:14;;;;;;;8.60;7.20;;;;;;;10.27;61.41;99467.73;104917;1256;67986;-67
2023/03/03 05:37:46;;;;;;;10.40;8.20;;;;;;;10.34;61.35;99465.14;104769;1253;73395;-60
2023/03/03 05:40:15;;;;;;;7.90;7.10;;;;;;;10.18;62.30;99469.50;104666;1251;61701;-64
2023/03/03 05:42:44;;;;;;;10.50;8.10;;;;;;;9.98;64.35;99466.67;104990;1253;61583;-64
2023/03/03 05:45:13;;;;;;;8.20;6.90;;;;;;;10.06;64.15;99467.42;104762;1255;73370;-63
2023/03/03 05:47:41;;;;;;;9.00;7.00;;;;;;;9.95;65.69;99468.91;108318;1251;70133;-65
2023/03/03 05:50:11;;;;;;;9.80;7.80;;;;;;;10.04;64.61;99464.70;108787;1250;72408;-68
2023/03/03 05:52:39;;;;;;;10.50;7.80;;;;;;;10.02;64.81;99464.06;108262;1251;61598;-63
2023/03/03 05:55:09;;;;;;;10.30;7.80;;;;;;;10.13;64.46;99461.15;108793;1256;60492;-67
2023/03/03 05:57:38;;;;;;;8.20;6.70;;;;;;;10.24;63.52;99461.88;106438;1253;73219;-64
2023/03/03 06:00:08;;;;;;;10.80;7.10;;;;;;;10.24;63.26;99457.52;104712;1255;69641;-69
2023/03/03 06:02:40;;;;;;;10.50;7.50;;;;;;;10.29;62.82;99454.83;104513;1255;73870;-67
2023/03/03 06:05:09;;;;;;;11.40;8.00;;;;;;;10.11;63.35;99457.88;104854;1255;61704;-68
2023/03/03 06:07:38;;;;;;;9.90;7.10;;;;;;;10.18;63.02;99459.72;104647;1266;61679;-66
2023/03/03 06:10:07;;;;;;;9.30;7.00;;;;;;;10.07;63.71;99454.59;104683;1253;72496;-65
2023/03/03 06:12:46;;;;;;;8.80;7.20;;;;;;;9.99;64.75;99455.61;104653;1256;70123;-67
2023/03/03 06:15:15;;;;;;;8.50;6.50;;;;;;;10.20;63.10;99450.00;104715;1256;71533;-69
2023/03/03 06:17:43;;;;;;;11.70;6.50;;;;;;;10.08;62.74;99451.55;104802;1269;61692;-69
2023/03/03 06:20:12;;;;;;;9.60;7.20;;;;;;;10.11;63.09;99450.70;105075;1251;61572;-68
2023/03/03 06:22:40;;;;;;;9.70;7.40;;;;;;;10.04;64.21;99454.02;104590;1257;73448;-65
2023/03/03 06:25:11;;;;;;;9.00;6.40;;;;;;;10.17;63.00;99453.45;104804;1256;69237;-64
2023/03/03 06:27:40;;;;;;;8.40;7.00;;;;;;;10.21;62.56;99446.98;105090;1255;72277;-67
2023/03/03 06:30:11;;;;;;;9.80;7.10;;;;;;;10.19;61.85;99446.70;104602;1251;61680;-66
2023/03/03 06:32:41;;;;;;;9.80;7.00;;;;;;;10.10;63.39;99443.25;104621;1270;60947;-66
2023/03/03 06:35:09;;;;;;;9.70;7.20;;;;;;;10.02;63.54;99443.92;104618;1256;72167;-64
2023/03/03 06:37:41;;;;;;;8.20;6.80;;;;;;;9.96;63.36;99445.60;104635;1255;70931;-68
2023/03/03 06:40:11;;;;;;;10.40;7.70;;;;;;;9.79;64.87;99442.29;104672;1252;71210;-69
2023/03/03 06:45:44;;;;;;;8.50;6.90;;;;;;;8.91;81.44;99443.71;102138;1288;600077;-68
2023/03/03 06:48:12;;;;;;;10.30;7.70;;;;;;;9.88;67.86;99439.63;104307;1276;60366;-69
2023/03/03 06:50:41;;;;;;;12.60;7.50;;;;;;;9.97;66.39;99437.48;104438;1264;60472;-66
2023/03/03 06:53:12;;;;;;;8.40;7.10;;;;;;;9.91;65.66;99437.39;104434;1266;72146;-67
2023/03/03 06:55:43;;;;;;;8.80;6.90;;;;;;;10.13;65.10;99434.38;104109;1267;67961;-66
2023/03/03 06:58:16;;;;;;;9.10;7.10;;;;;;;9.99;65.00;99430.76;104029;1274;233831;-67
2023/03/03 07:00:56;;;;;;;7.90;6.60;;;;;;;9.91;64.80;99431.98;104265;1266;60815;-66
2023/03/03 07:03:28;;;;;;;9.40;7.30;;;;;;;9.84;65.13;99432.61;104260;1266;60449;-69
2023/03/03 07:05:59;;;;;;;10.90;7.60;;;;;;;9.78;65.60;99427.80;104127;1266;71225;-67
2023/03/03 07:08:29;;;;;;;11.30;8.10;;;;;;;9.91;64.97;99431.81;104323;1270;69520;-69
2023/03/03 07:11:01;;;;;;;9.90;7.70;;;;;;;10.01;63.44;99429.97;104203;1273;72234;-69
2023/03/03 07:13:31;;;;;;;10.10;7.30;;;;;;;10.03;63.48;99430.39;104208;1272;60904;-69
2023/03/03 07:16:01;;;;;;;11.30;7.80;;;;;;;10.19;61.97;99429.90;104332;1266;61126;-69
2023/03/03 07:18:46;;;;;;;9.60;7.10;;;;;;;10.21;62.05;99423.85;104388;1261;72551;-71
2023/03/03 07:21:22;;;;;;;7.80;6.50;;;;;;;10.16;61.77;99422.29;104794;1254;69180;-67
2023/03/03 07:23:52;;;;;;;9.40;7.10;;;;;;;10.10;61.27;99423.06;104719;1255;71467;-68
2023/03/03 07:26:23;;;;;;;9.90;6.60;;;;;;;10.20;61.58;99422.66;104815;1255;60878;-66
2023/03/03 07:29:00;;;;;;;9.80;7.60;;;;;;;10.32;60.90;99416.38;104764;1260;60709;-68
2023/03/03 07:31:36;;;;;;;11.90;7.80;;;;;;;10.23;61.11;99415.00;105222;1263;72592;-68
2023/03/03 07:34:16;;;;;;;9.70;7.10;;;;;;;10.37;60.29;99414.70;104921;1264;69249;-66
2023/03/03 07:37:01;;;;;;;8.30;7.20;;;;;;;10.50;59.08;99415.38;104927;1256;71369;-69
2023/03/03 07:39:34;;;;;;;10.90;7.60;;;;;;;10.22;59.83;99414.85;105160;1248;61191;-67
2023/03/03 07:42:19;;;;;;;8.90;6.50;;;;;;;10.45;59.30;99410.32;105301;1248;60890;-69
2023/03/03 07:44:58;;;;;;;11.00;7.10;;;;;;;10.55;58.38;99406.90;105186;1250;71792;-66
2023/03/03 07:47:35;;;;;;;8.90;7.40;;;;;;;10.40;58.55;99409.35;105317;1250;68499;-65
2023/03/03 07:50:22;;;;;;;9.70;7.30;;;;;;;10.32;57.59;99408.66;105202;1254;71231;-65
2023/03/03 07:52:55;;;;;;;10.70;7.50;;;;;;;10.51;57.52;99405.85;105232;1253;60875;-66
2023/03/03 07:55:38;;;;;;;9.90;8.10;;;;;;;10.51;56.89;99406.21;105089;1254;60785;-67
2023/03/03 07:58:09;;;;;;;12.20;7.60;;;;;;;10.37;56.72;99403.70;105174;1267;72103;-66
2023/03/03 08:01:11;;;;;;;10.30;7.60;;;;;;;10.71;55.74;99397.39;105168;1256;69233;-65
2023/03/03 08:03:40;;;;;;;10.50;7.60;;;;;;;10.78;54.25;99398.83;105400;1260;72088;-66
2023/03/03 08:06:34;;;;;;;7.80;6.70;;;;;;;10.97;53.49;99398.59;105581;1250;60904;-67
2023/03/03 08:09:09;;;;;;;9.50;6.30;;;;;;;11.10;52.63;99398.54;105267;1254;61047;-66
2023/03/03 08:11:56;;;;;;;8.10;7.00;;;;;;;11.01;52.16;99397.70;105243;1254;72619;-65
2023/03/03 08:14:30;;;;;;;10.70;7.20;;;;;;;11.00;52.36;99396.17;106309;1250;70052;-65
2023/03/03 08:16:59;;;;;;;10.90;6.90;;;;;;;11.02;51.67;99393.98;104893;1254;70921;-66
2023/03/03 08:19:29;;;;;;;9.20;6.90;;;;;;;11.12;51.36;99389.45;105218;1249;60871;-69
2023/03/03 08:22:02;;;;;;;9.10;7.30;;;;;;;11.02;50.37;99388.70;105147;1253;60798;-67
2023/03/03 08:24:31;;;;;;;11.30;7.00;;;;;;;11.20;50.05;99384.86;105137;1250;73477;-67
2023/03/03 08:27:00;;;;;;;8.00;6.90;;;;;;;11.20;50.44;99386.46;105434;1250;69360;-69
2023/03/03 08:29:29;;;;;;;10.30;6.80;;;;;;;11.36;49.71;99381.79;105117;1249;72628;-63
2023/03/03 08:31:57;;;;;;;9.00;6.80;;;;;;;11.39;49.17;99380.96;105455;1254;60770;-64
2023/03/03 08:34:26;;;;;;;9.20;6.80;;;;;;;11.12;48.52;99381.56;105119;1253;60839;-67
2023/03/03 08:36:57;;;;;;;7.70;6.30;;;;;;;11.26;48.05;99376.50;105286;1251;72886;-66
2023/03/03 08:39:25;;;;;;;8.60;7.10;;;;;;;11.12;47.54;99375.08;105195;1267;69132;-64
2023/03/03 08:41:54;;;;;;;9.60;7.00;;;;;;;11.24;46.79;99371.52;105487;1251;72644;-65
2023/03/03 08:44:22;;;;;;;8.40;6.50;;;;;;;11.48;47.20;99370.51;105333;1253;60840;-65
2023/03/03 08:46:51;;;;;;;10.50;6.50;;;;;;;11.38;46.36;99371.70;105365;1250;60882;-66
2023/03/03 08:49:23;;;;;;;8.90;6.40;;;;;;;11.48;46.57;99366.29;105295;1253;74025;-65
2023/03/03 08:51:52;;;;;;;10.00;6.70;;;;;;;11.33;45.72;99367.55;105268;1253;71379;-64
2023/03/03 08:54:20;;;;;;;7.90;6.30;;;;;;;11.46;46.18;99364.95;105065;1268;72298;-63
2023/03/03 08:56:48;;;;;;;8.00;6.60;;;;;;;11.48;45.16;99361.70;105089;1251;60845;-65
2023/03/03 08:59:19;;;;;;;8.50;6.30;;;;;;;11.44;45.58;99365.09;105392;1253;60825;-65
2023/03/03 09:01:48;;;;;;;8.40;6.30;;;;;;;11.50;45.39;99359.83;105416;1251;74928;-67
2023/03/03 09:04:17;;;;;;;8.80;6.60;;;;;;;11.55;45.00;99356.45;105385;1251;67979;-66
2023/03/03 09:06:45;;;;;;;7.40;6.00;;;;;;;11.49;44.81;99355.32;105595;1253;71562;-65
2023/03/03 09:09:14;;;;;;;9.30;7.20;;;;;;;11.51;44.45;99354.35;105487;1253;62079;-66
2023/03/03 09:11:43;;;;;;;12.90;7.00;;;;;;;11.71;44.24;99352.81;105084;1254;60837;-66
2023/03/03 09:14:14;;;;;;;8.60;6.90;;;;;;;11.77;43.93;99347.55;105414;1251;73576;-66
2023/03/03 09:16:47;;;;;;;6.40;5.70;;;;;;;11.83;43.40;99349.05;105340;1251;69175;-66
2023/03/03 09:19:31;;;;;;;7.50;5.80;;;;;;;11.53;43.98;99344.61;105203;1250;72287;-66
2023/03/03 09:22:17;;;;;;;7.20;6.30;;;;;;;11.69;43.54;99344.46;105344;1253;60814;-65
2023/03/03 09:24:46;;;;;;;7.70;6.20;;;;;;;12.14;42.75;99337.56;105336;1254;60859;-66
2023/03/03 09:27:21;;;;;;;8.10;6.20;;;;;;;12.22;42.62;99335.73;105256;1254;72495;-65
2023/03/03 09:29:50;;;;;;;8.90;7.10;;;;;;;11.91;41.76;99332.77;105397;1249;68828;-67
2023/03/03 09:32:33;;;;;;;9.10;7.00;;;;;;;12.05;42.25;99326.09;105231;1249;73468;-65
2023/03/03 09:35:40;;;;;;;8.00;6.50;;;;;;;11.93;41.87;99326.39;105110;1254;60755;-67
2023/03/03 09:38:25;;;;;;;7.20;6.10;;;;;;;12.14;42.11;99323.00;105397;1254;60843;-65
2023/03/03 09:41:02;;;;;;;8.10;6.70;;;;;;;12.17;41.64;99318.09;104937;1251;73230;-66
2023/03/03 09:44:00;;;;;;;8.40;6.40;;;;;;;12.32;41.71;99314.76;105402;1253;69071;-63
2023/03/03 09:46:28;;;;;;;8.30;7.00;;;;;;;12.31;41.49;99310.48;104825;1250;72274;-65
2023/03/03 09:49:06;;;;;;;9.80;6.80;;;;;;;12.46;41.43;99304.31;105395;1253;60917;-66
2023/03/03 09:51:56;;;;;;;10.20;7.10;;;;;;;12.45;41.08;99300.34;105141;1249;60859;-67
2023/03/03 09:54:33;;;;;;;9.50;6.80;;;;;;;12.32;41.14;99294.40;108589;1253;73983;-62
2023/03/03 09:57:55;;;;;;;11.40;6.50;;;;;;;12.37;41.34;99288.34;107481;1253;70646;-64
2023/03/03 10:00:42;;;;;;;9.50;6.70;;;;;;;12.52;41.30;99277.30;104958;1254;71147;-66
2023/03/03 10:03:39;;;;;;;10.60;7.20;;;;;;;12.43;40.67;99275.00;105298;1253;60827;-65
2023/03/03 10:06:28;;;;;;;9.30;6.90;;;;;;;12.47;39.58;99268.26;105440;1249;60882;-66
2023/03/03 10:08:56;;;;;;;8.30;6.10;;;;;;;12.47;39.93;99268.77;105321;1251;72736;-64
2023/03/03 10:11:31;;;;;;;7.00;6.20;;;;;;;12.25;40.18;99260.36;105252;1253;69470;-65
2023/03/03 10:14:10;;;;;;;7.80;5.80;;;;;;;12.54;39.99;99261.36;105325;1251;72090;-63
2023/03/03 10:16:47;;;;;;;8.80;6.50;;;;;;;12.30;39.34;99252.85;105295;1253;60863;-62
2023/03/03 10:19:35;;;;;;;8.70;7.30;;;;;;;12.22;39.13;99251.19;105258;1250;60861;-66
2023/03/03 10:22:35;;;;;;;8.40;5.70;;;;;;;12.58;39.35;99248.67;105309;1253;73302;-64
2023/03/03 10:25:41;;;;;;;7.80;5.60;;;;;;;12.59;38.52;99249.65;105570;1251;67755;-64
2023/03/03 10:28:47;;;;;;;8.30;5.80;;;;;;;12.61;37.95;99242.35;105299;1262;72270;-64
2023/03/03 10:31:52;;;;;;;6.90;5.90;;;;;;;12.47;37.79;99240.13;106974;1251;60776;-65
2023/03/03 10:34:28;;;;;;;6.50;5.70;;;;;;;12.39;38.61;99238.96;106654;1251;60804;-67
2023/03/03 10:37:05;;;;;;;7.40;5.60;;;;;;;12.51;38.66;99230.21;105641;1253;73729;-65
2023/03/03 10:39:56;;;;;;;8.10;6.00;;;;;;;12.42;39.00;99223.04;105622;1253;68052;-65
2023/03/03 10:42:37;;;;;;;6.00;5.10;;;;;;;12.55;39.05;99222.80;105270;1259;72382;-64
2023/03/03 10:45:45;;;;;;;6.70;5.40;;;;;;;12.66;37.55;99216.02;105268;1254;60880;-63
2023/03/03 10:48:56;;;;;;;7.00;5.00;;;;;;;12.76;37.71;99207.71;105510;1253;60856;-68
2023/03/03 10:51:52;;;;;;;6.60;4.90;;;;;;;13.00;37.82;99192.71;105317;1250;72642;-66
2023/03/03 10:54:52;;;;;;;5.80;4.80;;;;;;;13.39;37.08;99185.44;105467;1254;70290;-68
2023/03/03 10:57:37;;;;;;;6.40;4.40;;;;;;;13.57;37.00;99177.87;105281;1257;72587;-65
2023/03/03 11:00:15;;;;;;;6.60;4.80;;;;;;;13.73;36.74;99171.94;105069;1249;60785;-65
2023/03/03 11:03:08;;;;;;;5.70;3.90;;;;;;;13.92;35.19;99163.33;104841;1255;61141;-65
2023/03/03 11:06:10;;;;;;;4.50;3.50;;;;;;;14.00;34.91;99166.83;105248;1253;73976;-66
2023/03/03 11:08:50;;;;;;;4.50;3.60;;;;;;;14.03;34.30;99155.55;105502;1251;69174;-63
2023/03/03 11:11:30;;;;;;;4.10;3.60;;;;;;;13.94;34.83;99153.86;105248;1254;71138;-65
2023/03/03 11:14:01;;;;;;;4.70;3.40;;;;;;;14.23;35.15;99152.30;105390;1249;61698;-65
2023/03/03 11:16:53;;;;;;;3.20;2.80;;;;;;;14.44;34.41;99147.21;105317;1253;61589;-65
2023/03/03 11:19:43;;;;;;;4.20;2.90;;;;;;;14.40;34.25;99148.88;105172;1254;74508;-67
2023/03/03 11:22:20;;;;;;;3.70;2.60;;;;;;;14.20;34.66;99146.86;105667;1254;69730;-66
2023/03/03 11:25:10;;;;;;;3.00;2.50;;;;;;;14.34;33.90;99140.66;105399;1251;71209;-68
2023/03/03 11:28:05;;;;;;;3.20;2.50;;;;;;;14.22;33.85;99140.05;104772;1253;61704;-62
2023/03/03 11:30:36;;;;;;;3.00;2.50;;;;;;;14.30;33.85;99138.66;105120;1267;61015;-63
2023/03/03 11:33:20;;;;;;;2.80;2.40;;;;;;;14.40;34.45;99139.70;107707;1251;73383;-66
2023/03/03 11:36:01;;;;;;;3.50;3.00;;;;;;;13.76;34.94;99142.98;106192;1251;67905;-65
2023/03/03 11:38:36;;;;;;;;;;;;;;;13.60;35.11;99140.33;105621;1265;73242;-66
2023/03/03 11:41:14;;;;;;;4.10;3.60;;;;;;;13.67;35.23;99138.11;105773;1251;61596;-68
2023/03/03 11:43:48;;;;;;;3.20;2.70;;;;;;;13.64;35.06;99132.13;105201;1251;61586;-63
2023/03/03 11:46:24;;;;;;;4.30;3.60;;;;;;;13.50;34.94;99130.02;105093;1263;72566;-65
2023/03/03 11:49:02;;;;;;;3.70;3.20;;;;;;;13.51;35.98;99126.43;105491;1251;69454;-65
2023/03/03 11:51:36;;;;;;;5.80;3.70;;;;;;;13.13;35.78;99124.89;105068;1250;71286;-64
2023/03/03 11:54:46;;;;;;;3.50;3.20;;;;;;;13.17;36.33;99123.98;105537;1253;61765;-63
2023/03/03 11:57:26;;;;;;;4.30;3.10;;;;;;;13.37;35.95;99122.60;105222;1254;61801;-66
2023/03/03 12:00:03;;;;;;;3.00;2.60;;;;;;;13.40;35.89;99121.84;105723;1250;75106;-65